Akaska, South Dakota
Current Conditions -  °F | °C
As of 6:52 AM on Thursday 23 Oct 2014 (Local Time) from KMBG Reporting Station
Clear Clear  
Wind Chill:   Ceiling: Unl
Heat Index:   Visibility: 10mi
Dew Point:   Wind: 5mph
Humidity: 73%   Direction: 150°SSE
Pressure: 29.93"   Gusts: NA
Location:  45.33°N, 100.12°W
Report Text: KMBG 231152Z AUTO 15004KT 10SM CLR 05/01 A2993 RMK AO2 SLP141 70012 T00500006 10061 20017 50001
Loading
Personal Weather Stations






























Interactive Weather Map
Tropical Storm Tracking
New forecast layout! Learn more

10-Day Weather Forecast

Advertisements
Track Severe Weather on mobile